createdAt,value
2019-05-29T00:02:07.951Z,99.00
2019-05-29T00:04:36.921Z,99.20
2019-05-29T00:07:06.138Z,99.20
2019-05-29T00:09:35.015Z,99.20
2019-05-29T00:12:03.934Z,99.50
2019-05-29T00:14:32.808Z,99.20
2019-05-29T00:17:01.578Z,99.30
2019-05-29T00:19:30.584Z,99.40
2019-05-29T00:21:59.425Z,99.70
2019-05-29T00:24:28.213Z,99.80
2019-05-29T00:26:56.972Z,99.90
2019-05-29T00:31:54.063Z,99.90
2019-05-29T00:34:22.820Z,99.90
2019-05-29T00:36:51.578Z,99.90
2019-05-29T00:39:20.329Z,99.90
2019-05-29T00:41:49.094Z,99.90
2019-05-29T00:44:31.553Z,99.90
2019-05-29T00:46:48.418Z,99.90
2019-05-29T00:49:18.056Z,99.90
2019-05-29T00:51:47.023Z,99.90
2019-05-29T00:54:16.552Z,99.90
2019-05-29T00:56:45.465Z,99.90
2019-05-29T00:59:15.107Z,99.90
2019-05-29T01:01:43.958Z,99.90
2019-05-29T01:04:13.629Z,99.90
2019-05-29T01:06:42.544Z,99.90
2019-05-29T01:09:12.311Z,99.90
2019-05-29T01:11:41.336Z,99.90
2019-05-29T01:14:11.049Z,99.90
2019-05-29T01:16:40.014Z,99.90
2019-05-29T01:19:27.116Z,99.90
2019-05-29T01:21:56.629Z,99.90
2019-05-29T01:26:53.892Z,99.90
2019-05-29T01:29:23.442Z,99.90
2019-05-29T01:31:52.468Z,99.90
2019-05-29T01:34:22.007Z,99.90
2019-05-29T01:36:50.846Z,99.90
2019-05-29T01:39:19.848Z,99.90
2019-05-29T01:41:48.683Z,99.90
2019-05-29T01:44:17.489Z,99.90
2019-05-29T01:46:46.285Z,99.90
2019-05-29T01:49:16.059Z,99.90
2019-05-29T01:51:44.917Z,99.90
2019-05-29T01:54:13.688Z,99.90
2019-05-29T01:56:42.445Z,99.90
2019-05-29T01:59:11.201Z,99.90
2019-05-29T02:01:39.968Z,99.90
2019-05-29T02:04:09.044Z,99.90
2019-05-29T02:06:37.821Z,99.90
2019-05-29T02:09:06.976Z,99.90
2019-05-29T02:11:35.889Z,99.90
2019-05-29T02:14:04.932Z,99.90
2019-05-29T02:16:33.768Z,99.90
2019-05-29T02:19:02.630Z,99.90
2019-05-29T02:21:31.494Z,99.90
2019-05-29T02:26:28.559Z,99.90
2019-05-29T02:28:57.314Z,99.90
2019-05-29T02:31:28.416Z,99.90
2019-05-29T02:33:56.552Z,99.90
2019-05-29T02:36:27.144Z,99.90
2019-05-29T02:38:55.880Z,99.90
2019-05-29T02:43:54.640Z,99.90
2019-05-29T02:46:23.938Z,99.90
2019-05-29T02:48:54.032Z,99.90
2019-05-29T02:51:24.213Z,99.90
2019-05-29T02:56:22.901Z,99.90
2019-05-29T02:58:52.549Z,99.90
2019-05-29T03:01:22.130Z,99.90
2019-05-29T03:03:52.146Z,99.90
2019-05-29T03:06:22.311Z,99.90
2019-05-29T03:08:51.880Z,99.90
2019-05-29T03:11:20.642Z,99.90
2019-05-29T03:13:49.456Z,99.90
2019-05-29T03:16:18.218Z,99.90
2019-05-29T03:18:47.058Z,99.90
2019-05-29T03:21:15.812Z,99.90
2019-05-29T03:23:44.688Z,99.90
2019-05-29T03:26:13.436Z,99.90
2019-05-29T03:28:42.288Z,99.90
2019-05-29T03:31:11.306Z,99.90
2019-05-29T03:36:10.152Z,99.90
2019-05-29T03:38:38.985Z,99.90
2019-05-29T03:43:36.356Z,99.90
2019-05-29T03:46:05.296Z,99.90
2019-05-29T03:48:34.518Z,99.90
2019-05-29T03:51:03.542Z,99.90
2019-05-29T03:53:33.748Z,99.90
2019-05-29T03:56:02.957Z,99.90
2019-05-29T03:58:33.236Z,99.90
2019-05-29T04:01:02.739Z,99.90
2019-05-29T04:03:33.246Z,99.90
2019-05-29T04:06:02.317Z,99.90
2019-05-29T04:08:31.570Z,99.90
2019-05-29T04:11:01.524Z,99.90
2019-05-29T04:13:31.856Z,99.90
2019-05-29T04:16:02.426Z,99.90
2019-05-29T04:18:33.916Z,99.90
2019-05-29T04:23:36.005Z,99.90
2019-05-29T04:28:34.848Z,99.90
2019-05-29T04:31:04.050Z,99.90
2019-05-29T04:33:34.777Z,99.90
2019-05-29T04:36:03.445Z,99.90
2019-05-29T04:38:33.792Z,99.90
2019-05-29T04:41:02.724Z,99.90
2019-05-29T04:43:33.230Z,99.90
2019-05-29T04:46:02.137Z,99.90
2019-05-29T04:48:32.036Z,99.90
2019-05-29T04:51:01.412Z,99.90
2019-05-29T04:53:31.345Z,99.90
2019-05-29T04:56:00.404Z,99.90
2019-05-29T04:58:29.161Z,99.90
2019-05-29T05:00:59.469Z,99.90
2019-05-29T05:03:29.076Z,99.90
2019-05-29T05:05:58.027Z,99.90
2019-05-29T05:08:26.785Z,99.90
2019-05-29T05:10:55.696Z,99.90
2019-05-29T05:13:24.890Z,99.90
2019-05-29T05:15:55.730Z,99.90
2019-05-29T05:18:24.482Z,99.90
2019-05-29T05:20:53.248Z,99.90
2019-05-29T05:23:22.019Z,99.90
2019-05-29T05:25:50.853Z,99.90
2019-05-29T05:28:19.625Z,99.90
2019-05-29T05:30:48.628Z,99.90
2019-05-29T05:33:17.469Z,99.90
2019-05-29T05:35:46.245Z,99.90
2019-05-29T05:38:15.017Z,99.90
2019-05-29T05:40:43.780Z,99.90
2019-05-29T05:43:23.624Z,99.90
2019-05-29T05:45:43.092Z,99.90
2019-05-29T05:48:11.947Z,99.90
2019-05-29T05:50:41.460Z,99.40
2019-05-29T05:53:10.429Z,99.30
2019-05-29T05:55:39.749Z,99.20
2019-05-29T05:58:08.632Z,99.30
2019-05-29T06:03:07.056Z,98.30
2019-05-29T06:05:36.145Z,98.30
2019-05-29T06:20:29.761Z,94.70
2019-05-29T06:22:58.843Z,89.10
2019-05-29T06:27:56.213Z,77.20
2019-05-29T06:30:25.587Z,72.60
2019-05-29T06:32:54.353Z,63.40
2019-05-29T06:35:23.185Z,58.70
2019-05-29T06:40:31.948Z,53.70
2019-05-29T06:43:00.749Z,51.50
2019-05-29T06:47:59.478Z,50.60
2019-05-29T06:50:28.225Z,48.90
2019-05-29T06:52:56.974Z,47.90
2019-05-29T06:55:25.885Z,46.80
2019-05-29T06:57:54.731Z,42.50
2019-05-29T07:00:34.965Z,42.40
2019-05-29T07:02:54.629Z,41.00
2019-05-29T07:05:23.641Z,40.20
2019-05-29T07:07:52.429Z,40.50
2019-05-29T07:10:21.637Z,35.90
2019-05-29T07:15:19.197Z,37.00
2019-05-29T07:17:47.940Z,36.90
2019-05-29T07:20:16.847Z,36.30
2019-05-29T07:22:47.015Z,35.60
2019-05-29T07:25:16.257Z,34.40
2019-05-29T07:27:45.197Z,34.10
2019-05-29T07:30:14.292Z,34.60
2019-05-29T07:37:42.109Z,35.50
2019-05-29T07:40:11.525Z,35.60
2019-05-29T07:42:45.565Z,36.90
2019-05-29T07:45:12.865Z,36.60
2019-05-29T07:47:42.598Z,35.80
2019-05-29T07:52:40.928Z,34.40
2019-05-29T07:55:10.228Z,32.70
2019-05-29T07:57:40.681Z,33.40
2019-05-29T08:00:10.765Z,34.30
2019-05-29T08:02:41.205Z,32.90
2019-05-29T08:05:11.170Z,33.00
2019-05-29T08:07:41.277Z,32.70
2019-05-29T08:10:12.024Z,33.70
2019-05-29T08:12:45.644Z,33.50
2019-05-29T08:15:11.346Z,33.70
2019-05-29T08:22:37.689Z,36.40
2019-05-29T08:25:06.854Z,36.10
2019-05-29T08:27:35.770Z,36.20
2019-05-29T08:30:06.279Z,35.30
2019-05-29T08:32:35.117Z,35.90
2019-05-29T08:35:04.225Z,35.50
2019-05-29T08:37:32.981Z,34.50
2019-05-29T08:42:30.338Z,34.90
2019-05-29T08:44:59.128Z,34.10
2019-05-29T08:50:16.426Z,34.50
2019-05-29T08:54:55.200Z,37.50
2019-05-29T09:04:51.902Z,45.20
2019-05-29T09:12:18.486Z,47.30
2019-05-29T09:22:14.945Z,50.20
2019-05-29T09:24:43.870Z,47.50
2019-05-29T09:27:12.976Z,45.80
2019-05-29T09:29:42.724Z,45.10
2019-05-29T09:32:11.561Z,45.80
2019-05-29T09:34:40.384Z,45.70
2019-05-29T09:42:05.910Z,48.70
2019-05-29T09:44:39.342Z,50.30
2019-05-29T09:47:05.701Z,50.00
2019-05-29T09:49:34.466Z,49.40
2019-05-29T09:52:04.138Z,46.00
2019-05-29T09:54:33.526Z,45.50
2019-05-29T09:57:02.824Z,46.30
2019-05-29T09:59:31.821Z,46.40
2019-05-29T10:02:05.921Z,45.60
2019-05-29T10:04:31.376Z,47.00
2019-05-29T10:07:02.149Z,46.30
2019-05-29T10:09:30.806Z,45.40
2019-05-29T10:12:03.571Z,47.60
2019-05-29T10:14:30.366Z,48.20
2019-05-29T10:17:04.391Z,43.80
2019-05-29T10:19:30.266Z,43.70
2019-05-29T10:24:32.283Z,43.20
2019-05-29T10:27:01.527Z,44.60
2019-05-29T10:29:36.558Z,45.00
2019-05-29T10:32:05.457Z,44.00
2019-05-29T10:34:34.294Z,44.70
2019-05-29T10:37:03.058Z,45.90
2019-05-29T10:39:31.858Z,44.50
2019-05-29T10:42:00.612Z,43.30
2019-05-29T10:46:57.672Z,44.90
2019-05-29T10:49:26.473Z,43.20
2019-05-29T10:52:12.035Z,42.90
2019-05-29T10:54:25.761Z,41.30
2019-05-29T10:56:55.635Z,40.60
2019-05-29T10:59:24.466Z,40.50
2019-05-29T11:01:53.785Z,41.20
2019-05-29T11:04:22.719Z,40.80
2019-05-29T11:06:52.572Z,40.90
2019-05-29T11:09:22.134Z,41.80
2019-05-29T11:11:53.021Z,39.90
2019-05-29T11:14:21.616Z,40.00
2019-05-29T11:16:50.892Z,40.00
2019-05-29T11:19:19.733Z,40.80
2019-05-29T11:21:49.687Z,39.70
2019-05-29T11:24:18.722Z,38.20
2019-05-29T11:26:48.349Z,38.60
2019-05-29T11:29:17.211Z,38.00
2019-05-29T11:31:46.036Z,37.10
2019-05-29T11:34:14.796Z,37.40
2019-05-29T11:36:43.564Z,38.80
2019-05-29T11:39:12.565Z,39.10
2019-05-29T11:41:41.312Z,38.30
2019-05-29T11:44:10.142Z,36.60
2019-05-29T11:46:38.926Z,37.50
2019-05-29T11:49:08.004Z,36.40
2019-05-29T11:51:36.763Z,36.90
2019-05-29T11:54:05.759Z,37.90
2019-05-29T11:56:34.521Z,37.60
2019-05-29T11:59:03.419Z,38.00
2019-05-29T12:01:49.159Z,38.40
2019-05-29T12:04:22.992Z,38.00
2019-05-29T12:06:33.427Z,38.50
2019-05-29T12:09:02.181Z,38.50
2019-05-29T12:11:30.946Z,38.10
2019-05-29T12:14:00.483Z,38.20
2019-05-29T12:16:29.978Z,38.70
2019-05-29T12:18:59.816Z,37.50
2019-05-29T12:21:28.890Z,36.30
2019-05-29T12:23:58.257Z,36.80
2019-05-29T12:26:27.094Z,36.50
2019-05-29T12:29:03.659Z,36.60
2019-05-29T12:31:26.408Z,37.10
2019-05-29T12:33:55.170Z,37.40
2019-05-29T12:36:24.016Z,36.40
2019-05-29T12:38:53.490Z,36.00
2019-05-29T12:41:22.495Z,36.40
2019-05-29T12:43:51.253Z,37.70
2019-05-29T12:46:20.193Z,37.00
2019-05-29T12:48:49.266Z,36.00
2019-05-29T12:51:18.376Z,36.20
2019-05-29T12:53:47.366Z,36.10
2019-05-29T12:56:16.116Z,36.30
2019-05-29T12:58:45.142Z,35.80
2019-05-29T13:01:13.906Z,36.70
2019-05-29T13:03:45.222Z,35.30
2019-05-29T13:06:13.232Z,34.70
2019-05-29T13:08:42.000Z,35.20
2019-05-29T13:11:10.754Z,35.10
2019-05-29T13:13:39.513Z,36.40
2019-05-29T13:16:09.993Z,36.10
2019-05-29T13:18:38.748Z,35.70
2019-05-29T13:21:07.585Z,35.20
2019-05-29T13:23:44.820Z,35.90
2019-05-29T13:26:06.908Z,35.40
2019-05-29T13:28:35.670Z,35.80
2019-05-29T13:31:05.161Z,35.60
2019-05-29T13:33:35.386Z,36.40
2019-05-29T13:36:04.558Z,35.40
2019-05-29T13:38:33.957Z,35.50
2019-05-29T13:43:31.509Z,34.70
2019-05-29T13:46:00.511Z,35.40
2019-05-29T13:48:29.352Z,35.70
2019-05-29T13:53:28.124Z,36.40
2019-05-29T13:55:57.714Z,35.80
2019-05-29T13:58:26.669Z,36.40
2019-05-29T14:00:55.461Z,35.70
2019-05-29T14:03:24.296Z,35.60
2019-05-29T14:05:53.175Z,36.60
2019-05-29T14:08:23.037Z,36.50
2019-05-29T14:10:51.789Z,36.50
2019-05-29T14:13:20.561Z,36.20
2019-05-29T14:18:19.720Z,35.90
2019-05-29T14:20:48.591Z,35.80
2019-05-29T14:23:17.340Z,36.40
2019-05-29T14:25:46.172Z,36.80
2019-05-29T14:28:15.272Z,36.40
2019-05-29T14:30:44.336Z,36.90
2019-05-29T14:33:15.147Z,36.70
2019-05-29T14:35:44.007Z,36.70
2019-05-29T14:38:15.087Z,36.90
2019-05-29T14:40:43.329Z,36.30
2019-05-29T14:43:15.434Z,37.00
2019-05-29T14:48:13.110Z,37.00
2019-05-29T14:50:41.757Z,36.30
2019-05-29T14:53:11.401Z,36.20
2019-05-29T14:55:40.792Z,37.20
2019-05-29T14:58:09.810Z,37.60
2019-05-29T15:00:41.822Z,36.20
2019-05-29T15:03:11.517Z,36.60
2019-05-29T15:05:40.412Z,37.00
2019-05-29T15:08:10.071Z,37.50
2019-05-29T15:10:39.116Z,37.00
2019-05-29T15:15:37.994Z,37.00
2019-05-29T15:20:35.937Z,36.60
2019-05-29T15:23:05.179Z,36.80
2019-05-29T15:25:34.014Z,37.10
2019-05-29T15:28:02.768Z,37.00
2019-05-29T15:30:31.534Z,36.20
2019-05-29T15:33:00.298Z,36.60
2019-05-29T15:35:29.130Z,36.70
2019-05-29T15:37:57.885Z,36.60
2019-05-29T15:40:26.668Z,36.60
2019-05-29T15:42:55.517Z,35.90
2019-05-29T15:45:24.469Z,36.70
2019-05-29T15:47:53.220Z,37.20
2019-05-29T15:50:22.169Z,37.10
2019-05-29T15:52:50.969Z,37.50
2019-05-29T15:55:31.143Z,36.50
2019-05-29T15:57:50.422Z,36.40
2019-05-29T16:00:19.431Z,36.80
2019-05-29T16:02:49.613Z,36.90
2019-05-29T16:05:20.310Z,37.20
2019-05-29T16:07:49.080Z,37.00
2019-05-29T16:10:20.536Z,37.70
2019-05-29T16:12:48.729Z,37.90
2019-05-29T16:15:19.269Z,38.10
2019-05-29T16:17:48.372Z,38.20
2019-05-29T16:20:18.630Z,40.10
2019-05-29T16:22:47.691Z,40.20
2019-05-29T16:25:18.982Z,39.40
2019-05-29T16:27:47.927Z,39.80
2019-05-29T16:30:17.747Z,39.50
2019-05-29T16:32:46.877Z,39.70
2019-05-29T16:35:17.194Z,39.40
2019-05-29T16:37:46.033Z,39.10
2019-05-29T16:40:18.031Z,39.40
2019-05-29T16:42:47.086Z,40.00
2019-05-29T16:45:18.534Z,39.40
2019-05-29T16:47:47.622Z,39.60
2019-05-29T16:50:17.510Z,40.00
2019-05-29T16:52:46.765Z,39.50
2019-05-29T16:55:53.974Z,39.30
2019-05-29T16:58:19.747Z,39.50
2019-05-29T17:00:49.704Z,40.00
2019-05-29T17:03:19.736Z,39.90
2019-05-29T17:05:49.609Z,39.90
2019-05-29T17:08:20.320Z,39.90
2019-05-29T17:10:50.197Z,40.50
2019-05-29T17:13:20.642Z,41.10
2019-05-29T17:15:50.651Z,41.70
2019-05-29T17:18:20.811Z,44.30
2019-05-29T17:20:50.872Z,44.80
2019-05-29T17:23:20.954Z,45.20
2019-05-29T17:25:50.925Z,44.70
2019-05-29T17:28:24.487Z,45.30
2019-05-29T17:33:21.569Z,48.70
2019-05-29T17:35:51.369Z,50.50
2019-05-29T17:38:21.304Z,51.10
2019-05-29T17:40:51.255Z,52.40
2019-05-29T17:43:24.707Z,53.70
2019-05-29T17:45:52.956Z,54.10
2019-05-29T17:48:23.896Z,54.40
2019-05-29T17:50:53.952Z,55.50
2019-05-29T17:53:24.239Z,57.50
2019-05-29T17:55:54.229Z,58.60
2019-05-29T18:00:55.307Z,57.90
2019-05-29T18:05:54.415Z,59.70
2019-05-29T18:08:25.044Z,61.80
2019-05-29T18:10:55.172Z,64.10
2019-05-29T18:13:25.349Z,66.00
2019-05-29T18:15:55.173Z,67.50
2019-05-29T18:18:25.755Z,68.90
2019-05-29T18:20:55.640Z,69.90
2019-05-29T18:23:26.205Z,71.40
2019-05-29T18:25:56.209Z,72.70
2019-05-29T18:28:26.176Z,74.20
2019-05-29T18:30:56.024Z,75.60
2019-05-29T18:33:26.801Z,77.10
2019-05-29T18:35:56.706Z,78.30
2019-05-29T18:38:26.664Z,79.40
2019-05-29T18:40:56.840Z,81.70
2019-05-29T18:43:26.689Z,82.90
2019-05-29T18:45:56.645Z,84.20
2019-05-29T18:48:27.285Z,85.20
2019-05-29T18:50:57.179Z,86.40
2019-05-29T18:53:27.087Z,87.10
2019-05-29T18:55:57.177Z,87.70
2019-05-29T18:58:30.510Z,88.50
2019-05-29T19:01:00.700Z,89.00
2019-05-29T19:03:32.607Z,88.80
2019-05-29T19:06:02.265Z,89.70
2019-05-29T19:08:32.213Z,90.30
2019-05-29T19:11:02.122Z,90.60
2019-05-29T19:13:35.093Z,90.90
2019-05-29T19:18:34.617Z,90.90
2019-05-29T19:21:04.679Z,90.60
2019-05-29T19:23:34.587Z,90.70
2019-05-29T19:26:04.541Z,90.50
2019-05-29T19:28:34.423Z,90.60
2019-05-29T19:31:07.313Z,91.10
2019-05-29T19:33:37.180Z,91.30
2019-05-29T19:38:36.228Z,91.60
2019-05-29T19:41:06.101Z,92.10
2019-05-29T19:43:35.986Z,92.10
2019-05-29T19:46:05.947Z,91.90
2019-05-29T19:48:35.749Z,91.90
2019-05-29T19:51:07.005Z,91.90
2019-05-29T19:53:37.938Z,91.60
2019-05-29T19:56:07.927Z,91.60
2019-05-29T19:58:37.766Z,91.50
2019-05-29T20:01:07.606Z,91.70
2019-05-29T20:08:39.085Z,92.30
2019-05-29T20:18:36.183Z,92.50
2019-05-29T20:21:06.209Z,92.70
2019-05-29T20:26:07.353Z,92.50
2019-05-29T20:33:44.976Z,93.20
2019-05-29T20:36:14.816Z,93.20
2019-05-29T20:38:44.771Z,93.30
2019-05-29T20:43:43.885Z,93.50
2019-05-29T20:48:43.110Z,93.60
2019-05-29T20:51:12.909Z,93.60
2019-05-29T20:53:42.750Z,94.00
2019-05-29T20:58:41.983Z,94.10
2019-05-29T21:01:11.867Z,94.00
2019-05-29T21:06:12.375Z,94.40
2019-05-29T21:08:43.356Z,94.30
2019-05-29T21:16:13.607Z,94.20
2019-05-29T21:21:13.982Z,94.60
2019-05-29T21:23:44.685Z,94.70
2019-05-29T21:26:14.858Z,95.10
2019-05-29T21:28:50.104Z,95.30
2019-05-29T21:31:16.347Z,95.40
2019-05-29T21:33:49.172Z,95.50
2019-05-29T21:36:18.193Z,95.60
2019-05-29T21:38:48.336Z,95.80
2019-05-29T21:41:18.177Z,96.00
2019-05-29T21:43:48.097Z,95.90
2019-05-29T21:46:17.990Z,95.80
2019-05-29T21:48:47.878Z,96.00
2019-05-29T21:51:17.801Z,96.00
2019-05-29T21:56:17.458Z,96.10
2019-05-29T21:58:59.900Z,96.00
2019-05-29T22:01:22.721Z,96.00
2019-05-29T22:06:22.373Z,96.30
2019-05-29T22:08:52.522Z,96.30
2019-05-29T22:11:22.554Z,96.40
2019-05-29T22:13:52.432Z,96.70
2019-05-29T22:16:22.397Z,96.80
2019-05-29T22:18:52.826Z,96.80
2019-05-29T22:21:22.757Z,97.10
2019-05-29T22:23:53.053Z,97.20
2019-05-29T22:26:22.934Z,97.20
2019-05-29T22:28:53.118Z,97.30
2019-05-29T22:31:23.205Z,97.50
2019-05-29T22:33:53.458Z,97.60
2019-05-29T22:36:23.316Z,97.50
2019-05-29T22:38:53.450Z,97.60
2019-05-29T22:41:23.427Z,98.20
2019-05-29T22:43:53.708Z,97.70
2019-05-29T22:46:23.524Z,98.10
2019-05-29T22:48:53.699Z,98.30
2019-05-29T22:51:23.696Z,97.80
2019-05-29T22:53:54.008Z,97.90
2019-05-29T22:56:24.034Z,98.40
2019-05-29T22:58:54.046Z,98.40
2019-05-29T23:01:23.987Z,98.30
2019-05-29T23:03:54.261Z,98.50
2019-05-29T23:06:24.057Z,98.60
2019-05-29T23:08:54.213Z,98.60
2019-05-29T23:11:24.181Z,98.60
2019-05-29T23:16:23.977Z,98.60
2019-05-29T23:23:53.432Z,98.60
2019-05-29T23:26:23.344Z,98.70
2019-05-29T23:28:54.714Z,98.60
2019-05-29T23:31:24.657Z,98.90
2019-05-29T23:33:54.779Z,99.10
2019-05-29T23:36:24.719Z,99.20
2019-05-29T23:38:55.081Z,99.10
2019-05-29T23:43:55.310Z,99.30
2019-05-29T23:46:25.385Z,99.50
2019-05-29T23:48:55.462Z,99.50
2019-05-29T23:51:25.392Z,99.50
2019-05-29T23:53:55.690Z,99.70
2019-05-29T23:56:25.553Z,99.70
2019-05-29T23:58:55.678Z,99.90
